Time;durP1;ratioP1;P1;durP2;ratioP2;P2;SDS_P1;SDS_P2;PMS_P1;PMS_P2;Temp;Humidity;BMP_temperature;BMP_pressure;BME280_temperature;BME280_humidity;BME280_pressure;Samples;Min_cycle;Max_cycle;Signal;HPM_P1;HPM_P2
2023/05/30 00:00:43;;;;;;;7.40;3.17;;;17.90;79.90;;;;;;5051356;28;20614;-58
2023/05/30 00:03:10;;;;;;;7.25;3.03;;;17.90;80.20;;;;;;5051678;28;20213;-58
2023/05/30 00:05:37;;;;;;;5.45;3.05;;;17.90;80.50;;;;;;5051528;28;20775;-60
2023/05/30 00:08:06;;;;;;;6.20;3.20;;;17.80;80.70;;;;;;5054975;28;20202;-60
2023/05/30 00:10:33;;;;;;;9.95;3.08;;;17.80;81.00;;;;;;5055345;28;20605;-59
2023/05/30 00:12:59;;;;;;;6.20;3.00;;;17.80;81.20;;;;;;5054933;28;20217;-59
2023/05/30 00:15:26;;;;;;;3.80;3.03;;;17.80;81.50;;;;;;5054976;28;20679;-59
2023/05/30 00:17:53;;;;;;;5.22;3.20;;;17.70;81.30;;;;;;5054871;28;20202;-58
2023/05/30 00:20:22;;;;;;;5.82;3.05;;;17.70;81.50;;;;;;5054929;28;20232;-60
2023/05/30 00:22:49;;;;;;;4.45;3.38;;;17.70;82.00;;;;;;5055181;28;20265;-59
2023/05/30 00:25:20;;;;;;;4.95;3.13;;;17.60;82.40;;;;;;5055319;28;20255;-59
2023/05/30 00:27:47;;;;;;;6.53;3.60;;;17.50;82.40;;;;;;5054827;28;20210;-59
2023/05/30 00:30:14;;;;;;;4.38;3.10;;;17.50;82.60;;;;;;5055059;28;20232;-60
2023/05/30 00:32:41;;;;;;;5.38;3.17;;;17.50;82.80;;;;;;5055115;28;20206;-58
2023/05/30 00:35:09;;;;;;;3.70;2.88;;;17.40;83.30;;;;;;5055477;28;20206;-59
2023/05/30 00:37:36;;;;;;;4.40;2.90;;;17.40;83.80;;;;;;5055593;28;20241;-58
2023/05/30 00:40:04;;;;;;;5.97;3.20;;;17.30;83.70;;;;;;5055493;28;20232;-59
2023/05/30 00:42:32;;;;;;;4.53;3.38;;;17.20;84.30;;;;;;5055567;28;20233;-59
2023/05/30 00:44:58;;;;;;;3.67;3.00;;;17.20;84.40;;;;;;5055417;28;20218;-60
2023/05/30 00:47:26;;;;;;;5.30;2.90;;;17.20;85.40;;;;;;5055002;28;20213;-59
2023/05/30 00:49:53;;;;;;;4.63;3.00;;;17.10;84.90;;;;;;5054499;28;20738;-60
2023/05/30 00:52:21;;;;;;;5.85;3.08;;;17.10;85.50;;;;;;5054752;28;20208;-58
2023/05/30 00:54:48;;;;;;;5.88;3.35;;;17.10;86.00;;;;;;5054723;28;20229;-59
2023/05/30 00:57:16;;;;;;;5.43;3.03;;;17.00;86.20;;;;;;5054202;28;20311;-59
2023/05/30 00:59:45;;;;;;;6.05;2.90;;;17.00;86.40;;;;;;5054347;28;20340;-60
2023/05/30 01:02:12;;;;;;;4.18;3.03;;;17.00;86.30;;;;;;5054036;28;20279;-58
2023/05/30 01:04:40;;;;;;;6.32;3.30;;;17.00;86.30;;;;;;5054369;28;20209;-59
2023/05/30 01:07:10;;;;;;;5.93;3.40;;;17.00;86.40;;;;;;5053906;28;20271;-58
2023/05/30 01:12:14;;;;;;;3.90;3.10;;;17.00;86.90;;;;;;5051960;28;20289;-68
2023/05/30 01:14:50;;;;;;;6.57;3.20;;;17.00;87.20;;;;;;5053472;28;20726;-69
2023/05/30 01:17:26;;;;;;;4.85;3.10;;;16.90;87.40;;;;;;5053455;28;20215;-68
2023/05/30 01:20:07;;;;;;;4.15;3.03;;;16.90;87.70;;;;;;5057007;28;20225;-69
2023/05/30 01:22:42;;;;;;;6.80;2.92;;;16.90;88.00;;;;;;5073205;28;20777;-69
2023/05/30 01:25:22;;;;;;;4.97;3.35;;;16.90;88.20;;;;;;5073154;28;20200;-69
2023/05/30 01:28:05;;;;;;;4.95;3.05;;;16.90;88.10;;;;;;5073188;28;20242;-69
2023/05/30 01:30:33;;;;;;;5.65;3.22;;;16.90;88.50;;;;;;5073252;28;20330;-69
2023/05/30 01:33:01;;;;;;;7.05;3.25;;;16.90;88.80;;;;;;5072966;28;20287;-68
2023/05/30 01:35:28;;;;;;;7.22;3.40;;;16.90;89.30;;;;;;5072997;28;20213;-68
2023/05/30 01:37:54;;;;;;;5.32;3.10;;;16.80;89.60;;;;;;5072821;28;20578;-69
2023/05/30 01:40:25;;;;;;;4.15;2.85;;;16.80;89.80;;;;;;5072945;28;20231;-68
2023/05/30 01:42:58;;;;;;;3.83;3.17;;;16.80;90.10;;;;;;5072868;28;20320;-68
2023/05/30 01:45:36;;;;;;;6.13;3.20;;;16.70;90.50;;;;;;5072915;28;20249;-69
2023/05/30 01:48:11;;;;;;;5.88;3.20;;;16.70;90.40;;;;;;5072633;28;20241;-69
2023/05/30 01:50:43;;;;;;;3.67;2.90;;;16.60;90.50;;;;;;5072879;28;20232;-69
2023/05/30 01:53:15;;;;;;;5.47;3.08;;;16.60;90.70;;;;;;5072786;28;20209;-68
2023/05/30 01:55:44;;;;;;;4.25;3.30;;;16.60;90.70;;;;;;5072733;28;20205;-69
2023/05/30 01:58:14;;;;;;;4.32;2.75;;;16.60;90.80;;;;;;5072904;28;20633;-69
2023/05/30 02:00:43;;;;;;;3.47;3.03;;;16.50;91.00;;;;;;5073119;28;20269;-69
2023/05/30 02:03:11;;;;;;;5.22;3.40;;;16.50;91.20;;;;;;5072633;28;20229;-69
2023/05/30 02:05:38;;;;;;;4.35;2.95;;;16.40;91.40;;;;;;5072775;28;20205;-70
2023/05/30 02:08:05;;;;;;;4.75;2.80;;;16.40;91.60;;;;;;5072665;28;20209;-69
2023/05/30 02:10:32;;;;;;;6.38;2.92;;;16.40;91.60;;;;;;5072537;28;20243;-67
2023/05/30 02:12:58;;;;;;;7.32;3.22;;;16.40;91.60;;;;;;5072587;28;20207;-67
2023/05/30 02:15:25;;;;;;;5.60;3.00;;;16.30;91.70;;;;;;5072870;28;20231;-68
2023/05/30 02:17:53;;;;;;;4.20;2.92;;;16.30;91.80;;;;;;5073481;28;20235;-68
2023/05/30 02:20:20;;;;;;;4.93;2.95;;;16.30;92.00;;;;;;5073499;28;20714;-68
2023/05/30 02:22:47;;;;;;;5.18;3.15;;;16.30;92.10;;;;;;5073116;28;20229;-68
2023/05/30 02:25:13;;;;;;;5.30;3.00;;;16.30;92.30;;;;;;5073012;28;20236;-68
2023/05/30 02:27:40;;;;;;;6.28;3.28;;;16.20;92.50;;;;;;5071967;28;20219;-68
2023/05/30 02:30:08;;;;;;;4.93;3.03;;;16.20;92.60;;;;;;5072131;28;20236;-68
2023/05/30 02:32:35;;;;;;;5.88;2.88;;;16.20;92.70;;;;;;5072135;28;20335;-68
2023/05/30 02:35:03;;;;;;;4.22;2.83;;;16.10;93.20;;;;;;5072214;28;20236;-70
2023/05/30 02:37:30;;;;;;;6.93;3.10;;;16.10;92.90;;;;;;5071696;28;20232;-68
2023/05/30 02:39:57;;;;;;;7.13;3.15;;;16.10;93.00;;;;;;5072012;28;20314;-68
2023/05/30 02:42:23;;;;;;;6.15;3.10;;;16.10;93.10;;;;;;5071602;28;20217;-68
2023/05/30 02:44:50;;;;;;;3.65;2.78;;;16.10;93.10;;;;;;5071902;28;20251;-68
2023/05/30 02:47:17;;;;;;;4.22;3.00;;;16.20;93.10;;;;;;5071787;28;20236;-67
2023/05/30 02:49:44;;;;;;;5.25;3.38;;;16.20;93.10;;;;;;5071788;28;20578;-68
2023/05/30 02:52:14;;;;;;;4.25;2.72;;;16.10;93.20;;;;;;5072078;28;20225;-68
2023/05/30 02:54:41;;;;;;;5.83;3.00;;;16.20;93.20;;;;;;5071835;28;20303;-68
2023/05/30 02:57:07;;;;;;;5.65;3.15;;;16.20;93.20;;;;;;5071674;28;20209;-68
2023/05/30 02:59:34;;;;;;;7.75;3.20;;;16.20;93.40;;;;;;5072067;28;20608;-68
2023/05/30 03:02:01;;;;;;;6.63;3.10;;;16.20;93.40;;;;;;5071841;28;20228;-68
2023/05/30 03:04:28;;;;;;;5.53;3.05;;;16.10;93.50;;;;;;5071786;28;20271;-68
2023/05/30 03:06:55;;;;;;;5.18;2.85;;;16.10;93.50;;;;;;5071530;28;20597;-68
2023/05/30 03:09:24;;;;;;;7.57;3.53;;;16.10;93.70;;;;;;5071680;28;20201;-68
2023/05/30 03:11:51;;;;;;;6.82;3.00;;;16.10;93.80;;;;;;5071627;28;20225;-68
2023/05/30 03:14:18;;;;;;;4.57;3.30;;;16.10;93.90;;;;;;5071781;28;20213;-68
2023/05/30 03:16:45;;;;;;;6.25;3.25;;;16.10;93.90;;;;;;5071418;28;20212;-68
2023/05/30 03:19:11;;;;;;;4.82;3.05;;;16.10;93.90;;;;;;5071286;28;20209;-68
2023/05/30 03:21:38;;;;;;;8.90;3.38;;;16.10;93.90;;;;;;5071167;28;20331;-68
2023/05/30 03:24:06;;;;;;;5.72;3.20;;;16.00;94.10;;;;;;5071691;28;20696;-68
2023/05/30 03:26:34;;;;;;;5.45;3.55;;;16.00;94.00;;;;;;5071354;28;20331;-68
2023/05/30 03:29:01;;;;;;;4.32;3.08;;;16.00;94.10;;;;;;5071408;28;20235;-68
2023/05/30 03:31:29;;;;;;;3.60;3.03;;;16.00;94.20;;;;;;5071271;28;20231;-68
2023/05/30 03:33:56;;;;;;;7.15;3.20;;;16.00;94.40;;;;;;5071553;28;20262;-68
2023/05/30 03:36:24;;;;;;;6.00;3.53;;;16.00;94.40;;;;;;5070924;28;20205;-68
2023/05/30 03:38:51;;;;;;;6.90;3.50;;;15.90;94.60;;;;;;5071149;28;20672;-68
2023/05/30 03:41:17;;;;;;;5.70;3.42;;;16.00;94.90;;;;;;5072966;28;20228;-68
2023/05/30 03:43:46;;;;;;;7.07;3.60;;;16.00;95.00;;;;;;5075628;28;20596;-68
2023/05/30 03:46:14;;;;;;;5.60;3.35;;;15.90;95.40;;;;;;5075509;28;20300;-68
2023/05/30 03:48:41;;;;;;;6.07;3.65;;;15.90;95.60;;;;;;5075524;28;20208;-68
2023/05/30 03:51:08;;;;;;;6.18;3.08;;;16.00;95.60;;;;;;5075315;28;20224;-68
2023/05/30 03:53:34;;;;;;;5.82;3.30;;;16.10;95.60;;;;;;5074996;28;20666;-68
2023/05/30 03:56:01;;;;;;;5.93;3.58;;;16.10;95.70;;;;;;5074965;28;20208;-68
2023/05/30 03:58:28;;;;;;;3.92;3.20;;;16.10;96.10;;;;;;5074991;28;20515;-68
2023/05/30 04:00:56;;;;;;;6.57;4.00;;;16.10;95.90;;;;;;5074881;28;20229;-68
2023/05/30 04:03:24;;;;;;;5.60;3.45;;;16.10;96.20;;;;;;5074695;28;20601;-68
2023/05/30 04:05:51;;;;;;;5.45;3.47;;;16.10;96.20;;;;;;5074870;28;20211;-68
2023/05/30 04:08:17;;;;;;;5.03;3.38;;;16.10;96.40;;;;;;5074822;28;20262;-68
2023/05/30 04:10:45;;;;;;;6.88;3.42;;;16.20;96.70;;;;;;5074898;28;20236;-68
2023/05/30 04:13:11;;;;;;;6.82;3.58;;;16.20;96.60;;;;;;5075090;28;20208;-68
2023/05/30 04:15:38;;;;;;;6.90;3.90;;;16.20;96.60;;;;;;5074528;28;20631;-68
2023/05/30 04:18:07;;;;;;;5.88;3.60;;;16.40;96.40;;;;;;5074393;28;20219;-67
2023/05/30 04:20:34;;;;;;;5.70;3.35;;;16.40;96.40;;;;;;5074395;28;20702;-66
2023/05/30 04:23:01;;;;;;;5.68;3.38;;;16.50;96.40;;;;;;5074118;28;20228;-67
2023/05/30 04:25:28;;;;;;;6.75;3.58;;;16.60;96.20;;;;;;5074624;28;20204;-67
2023/05/30 04:27:56;;;;;;;7.22;3.50;;;16.60;96.10;;;;;;5074260;28;20209;-67
2023/05/30 04:30:23;;;;;;;4.85;3.33;;;16.70;96.20;;;;;;5074211;28;20311;-69
2023/05/30 04:32:50;;;;;;;6.57;3.25;;;16.80;95.80;;;;;;5074241;28;20845;-69
2023/05/30 04:35:18;;;;;;;5.80;3.10;;;16.90;95.40;;;;;;5074373;28;20227;-69
2023/05/30 04:37:45;;;;;;;5.85;3.35;;;17.00;95.20;;;;;;5074154;28;20300;-69
2023/05/30 04:40:13;;;;;;;8.88;4.35;;;17.00;95.10;;;;;;5074065;28;20228;-69
2023/05/30 04:42:41;;;;;;;3.70;3.00;;;17.10;95.10;;;;;;5073959;28;20654;-68
2023/05/30 04:45:08;;;;;;;5.53;3.95;;;17.40;95.30;;;;;;5073937;28;20730;-68
2023/05/30 04:47:36;;;;;;;6.28;3.90;;;17.60;95.90;;;;;;5073518;28;20228;-69
2023/05/30 04:50:03;;;;;;;5.57;3.25;;;17.70;95.70;;;;;;5073770;28;20658;-68
2023/05/30 04:52:31;;;;;;;7.22;5.05;;;17.90;95.50;;;;;;5073334;28;20332;-69
2023/05/30 04:54:58;;;;;;;7.13;4.00;;;18.20;95.30;;;;;;5074150;28;20205;-69
2023/05/30 04:57:24;;;;;;;6.40;3.78;;;18.40;95.00;;;;;;5073651;28;20257;-69
2023/05/30 04:59:52;;;;;;;6.68;4.28;;;18.60;94.40;;;;;;5073738;28;20240;-69
2023/05/30 05:02:19;;;;;;;7.95;3.92;;;18.80;94.10;;;;;;5073608;28;20724;-69
2023/05/30 05:04:46;;;;;;;7.32;4.07;;;19.10;93.90;;;;;;5073643;28;20234;-69
2023/05/30 05:07:12;;;;;;;6.63;3.83;;;19.30;93.80;;;;;;5073308;28;20693;-69
2023/05/30 05:09:40;;;;;;;6.82;3.63;;;19.50;93.50;;;;;;5073634;28;20532;-69
2023/05/30 05:12:08;;;;;;;8.20;4.07;;;19.70;93.10;;;;;;5073721;28;20209;-68
2023/05/30 05:14:35;;;;;;;6.55;3.80;;;20.00;92.90;;;;;;5073236;28;20208;-69
2023/05/30 05:17:02;;;;;;;8.40;4.03;;;20.40;91.40;;;;;;5073540;28;20211;-69
2023/05/30 05:19:28;;;;;;;7.10;3.45;;;20.60;90.40;;;;;;5073425;28;20209;-69
2023/05/30 05:21:56;;;;;;;5.82;3.33;;;20.80;89.20;;;;;;5073430;28;20292;-69
2023/05/30 05:24:22;;;;;;;6.35;3.15;;;20.90;88.60;;;;;;5073218;28;20300;-69
2023/05/30 05:26:51;;;;;;;5.65;3.40;;;21.00;87.50;;;;;;5072953;28;20670;-69
2023/05/30 05:29:18;;;;;;;4.07;3.13;;;21.20;86.20;;;;;;5073165;28;20697;-69
2023/05/30 05:31:44;;;;;;;11.07;5.10;;;21.20;85.80;;;;;;5073007;28;20228;-68
2023/05/30 05:34:11;;;;;;;8.15;3.45;;;21.20;85.80;;;;;;5072930;28;20205;-69
2023/05/30 05:36:38;;;;;;;6.93;3.40;;;21.30;85.10;;;;;;5072934;28;20204;-68
2023/05/30 05:39:05;;;;;;;7.53;3.95;;;21.30;85.10;;;;;;5073111;28;20209;-69
2023/05/30 05:41:31;;;;;;;5.93;3.40;;;21.40;84.80;;;;;;5073122;28;20229;-68
2023/05/30 05:44:00;;;;;;;5.95;3.40;;;21.70;84.40;;;;;;5072983;28;20702;-69
2023/05/30 05:46:26;;;;;;;4.82;3.05;;;22.00;82.90;;;;;;5072662;28;20254;-69
2023/05/30 05:48:54;;;;;;;5.20;3.28;;;22.20;81.50;;;;;;5073266;28;20749;-68
2023/05/30 05:51:21;;;;;;;12.55;4.75;;;22.40;81.20;;;;;;5072651;28;20233;-68
2023/05/30 05:53:48;;;;;;;6.22;2.85;;;22.40;80.60;;;;;;5072931;28;20208;-66
2023/05/30 05:56:15;;;;;;;7.20;3.47;;;22.20;81.30;;;;;;5068399;28;20446;-66
2023/05/30 05:58:42;;;;;;;7.13;3.35;;;22.00;82.20;;;;;;5071592;28;20213;-68
2023/05/30 06:01:10;;;;;;;6.68;3.10;;;22.00;82.20;;;;;;5071816;28;20326;-65
2023/05/30 06:03:37;;;;;;;6.07;3.40;;;22.30;81.50;;;;;;5070554;28;20221;-69
2023/05/30 06:06:04;;;;;;;6.20;3.13;;;22.60;80.90;;;;;;5071021;28;20208;-64
2023/05/30 06:08:31;;;;;;;7.28;3.88;;;22.70;80.40;;;;;;5071266;28;20220;-69
2023/05/30 06:10:57;;;;;;;5.90;3.08;;;22.90;79.50;;;;;;5070960;28;20232;-66
2023/05/30 06:13:24;;;;;;;4.97;2.88;;;22.80;79.10;;;;;;5070831;28;20318;-70
2023/05/30 06:15:51;;;;;;;5.45;3.00;;;22.80;79.10;;;;;;5065875;28;20205;-65
2023/05/30 06:18:19;;;;;;;4.30;2.70;;;22.80;79.50;;;;;;5071315;28;20622;-66
2023/05/30 06:20:46;;;;;;;5.30;3.15;;;23.00;78.50;;;;;;5070884;28;20235;-63
2023/05/30 06:23:13;;;;;;;5.70;3.17;;;23.20;78.80;;;;;;5070519;28;20577;-63
2023/05/30 06:25:40;;;;;;;4.50;2.78;;;23.50;77.50;;;;;;5070774;28;20205;-62
2023/05/30 06:28:07;;;;;;;7.43;3.03;;;23.80;76.10;;;;;;5070848;28;20201;-63
2023/05/30 06:30:34;;;;;;;5.07;2.70;;;24.20;74.20;;;;;;5070591;28;20225;-63
2023/05/30 06:33:00;;;;;;;7.25;3.35;;;24.70;73.30;;;;;;5070703;28;20201;-65
2023/05/30 06:35:28;;;;;;;5.38;3.00;;;25.00;71.00;;;;;;5070382;28;20232;-64
2023/05/30 06:37:55;;;;;;;3.80;2.63;;;25.20;70.60;;;;;;5070363;28;20542;-66
2023/05/30 06:40:22;;;;;;;6.22;2.78;;;25.50;69.60;;;;;;5070532;28;20309;-65
2023/05/30 06:42:49;;;;;;;4.82;2.88;;;26.00;68.80;;;;;;5070545;28;20594;-64
2023/05/30 06:45:16;;;;;;;4.78;2.72;;;26.40;67.60;;;;;;5070851;28;20205;-64
2023/05/30 06:47:42;;;;;;;5.07;3.08;;;26.30;67.00;;;;;;5070026;28;20209;-64
2023/05/30 06:50:10;;;;;;;4.25;2.72;;;26.30;66.50;;;;;;5070438;28;20227;-68
2023/05/30 06:52:38;;;;;;;6.18;3.20;;;26.30;66.10;;;;;;5071535;28;20212;-68
2023/05/30 06:55:06;;;;;;;8.10;2.92;;;26.60;65.80;;;;;;5072252;28;20209;-67
2023/05/30 06:57:35;;;;;;;6.72;2.97;;;26.70;63.90;;;;;;5073205;28;20220;-67
2023/05/30 07:00:02;;;;;;;5.25;2.70;;;26.80;64.70;;;;;;5079624;28;20233;-68
2023/05/30 07:02:30;;;;;;;5.03;2.70;;;27.20;64.00;;;;;;5084801;28;20212;-67
2023/05/30 07:04:57;;;;;;;7.05;3.13;;;27.60;63.20;;;;;;5084537;28;20228;-67
2023/05/30 07:07:23;;;;;;;8.32;2.80;;;27.70;62.30;;;;;;5085147;28;20622;-68
2023/05/30 07:09:51;;;;;;;4.68;2.78;;;27.80;62.10;;;;;;5090264;22;20225;31
2023/05/30 07:12:18;;;;;;;6.55;3.17;;;28.00;62.50;;;;;;5028600;28;20233;-65
2023/05/30 07:14:45;;;;;;;4.40;2.90;;;28.00;60.80;;;;;;5030332;28;20667;-64
2023/05/30 07:17:11;;;;;;;5.93;3.47;;;27.80;60.80;;;;;;5030401;28;20287;-65
2023/05/30 07:19:38;;;;;;;14.55;3.30;;;27.60;61.50;;;;;;5030560;28;20573;-64
2023/05/30 07:22:05;;;;;;;5.85;3.13;;;27.80;61.20;;;;;;5049843;28;20724;-63
2023/05/30 07:24:32;;;;;;;13.02;3.33;;;27.90;60.50;;;;;;5051763;28;20225;-64
2023/05/30 07:27:01;;;;;;;7.35;2.78;;;27.80;60.80;;;;;;5053544;28;20225;-64
2023/05/30 07:29:28;;;;;;;5.32;2.92;;;27.90;61.00;;;;;;5058063;28;20206;-64
2023/05/30 07:31:54;;;;;;;7.85;2.78;;;28.80;59.30;;;;;;5059817;28;20714;-66
2023/05/30 07:34:21;;;;;;;6.97;3.13;;;29.90;57.70;;;;;;5058877;28;20592;-64
2023/05/30 07:36:48;;;;;;;6.82;2.83;;;31.30;55.60;;;;;;5059088;28;20205;-64
2023/05/30 07:39:15;;;;;;;3.45;2.50;;;32.20;53.50;;;;;;5061088;28;20205;-64
2023/05/30 07:41:41;;;;;;;5.38;2.80;;;31.90;53.20;;;;;;5056072;28;20255;-63
2023/05/30 07:44:10;;;;;;;5.10;2.83;;;31.60;53.20;;;;;;5053989;28;20225;-64
2023/05/30 07:46:37;;;;;;;10.60;3.20;;;32.00;52.90;;;;;;5051501;28;20217;-63
2023/05/30 07:49:03;;;;;;;4.82;2.55;;;32.40;52.30;;;;;;5053313;28;20666;-65
2023/05/30 07:51:30;;;;;;;10.20;2.60;;;32.60;51.10;;;;;;5050973;28;20230;-64
2023/05/30 07:53:57;;;;;;;4.90;2.38;;;32.70;50.50;;;;;;5050638;28;20231;-64
2023/05/30 07:56:23;;;;;;;6.80;2.78;;;32.40;50.60;;;;;;5050202;28;20361;-65
2023/05/30 07:58:50;;;;;;;8.15;2.95;;;32.10;51.20;;;;;;5049316;28;20220;-65
2023/05/30 08:01:18;;;;;;;5.07;2.70;;;32.10;51.10;;;;;;5050078;28;20237;-65
2023/05/30 08:03:45;;;;;;;4.25;2.35;;;32.60;50.50;;;;;;5049797;28;20218;-64
2023/05/30 08:06:12;;;;;;;5.57;2.58;;;33.20;49.20;;;;;;5049730;28;20259;-65
2023/05/30 08:08:38;;;;;;;5.13;3.20;;;33.50;49.10;;;;;;5049721;28;20579;-64
2023/05/30 08:11:05;;;;;;;5.10;2.80;;;33.40;49.00;;;;;;5049323;28;20237;-64
2023/05/30 08:13:32;;;;;;;8.07;3.13;;;33.20;49.60;;;;;;5049677;28;20205;-64
2023/05/30 08:15:58;;;;;;;3.88;2.72;;;33.40;48.60;;;;;;5049728;28;20263;-65
2023/05/30 08:18:31;;;;;;;4.38;2.70;;;33.70;48.50;;;;;;5049665;28;20675;-63
2023/05/30 08:20:58;;;;;;;6.95;2.80;;;33.60;48.60;;;;;;5049727;28;20225;-64
2023/05/30 08:23:26;;;;;;;24.42;17.38;;;33.30;48.80;;;;;;5049455;28;20680;-63
2023/05/30 08:25:52;;;;;;;8.23;5.38;;;33.40;48.80;;;;;;5049211;28;20210;-64
2023/05/30 08:28:20;;;;;;;5.85;2.65;;;33.30;48.80;;;;;;5052682;28;20642;-64
2023/05/30 08:30:48;;;;;;;12.15;8.15;;;33.30;48.50;;;;;;5053337;28;20641;-63
2023/05/30 08:33:15;;;;;;;5.63;2.65;;;33.60;48.10;;;;;;5052983;28;20241;-64
2023/05/30 08:35:44;;;;;;;3.95;3.05;;;33.60;47.90;;;;;;5052763;28;20312;-63
2023/05/30 08:38:11;;;;;;;4.90;2.50;;;33.20;48.40;;;;;;5053129;28;20201;-62
2023/05/30 08:40:42;;;;;;;5.15;2.63;;;33.10;48.20;;;;;;5053262;28;20222;-62
2023/05/30 08:43:08;;;;;;;5.38;2.72;;;32.50;48.50;;;;;;5053482;28;20567;-63
2023/05/30 08:45:35;;;;;;;3.83;2.42;;;31.30;50.60;;;;;;5053089;28;20202;-64
2023/05/30 08:48:02;;;;;;;4.38;2.92;;;30.00;52.30;;;;;;5052693;28;20205;-63
2023/05/30 08:50:30;;;;;;;4.55;2.80;;;28.60;54.10;;;;;;5053600;28;20300;-63
2023/05/30 08:53:02;;;;;;;5.60;3.17;;;27.30;56.40;;;;;;5052762;28;20314;-63
2023/05/30 08:55:38;;;;;;;5.00;2.70;;;26.20;58.40;;;;;;5052958;28;20202;-62
2023/05/30 08:58:10;;;;;;;7.93;2.95;;;25.40;60.70;;;;;;5052732;28;20308;-63
2023/05/30 09:00:38;;;;;;;6.45;3.58;;;24.80;61.50;;;;;;5052588;28;20233;-62
2023/05/30 09:03:06;;;;;;;7.15;2.80;;;24.40;63.10;;;;;;5052524;28;20201;-61
2023/05/30 09:05:34;;;;;;;6.35;3.40;;;23.80;64.30;;;;;;5052444;28;20654;-58
2023/05/30 09:08:03;;;;;;;5.90;2.88;;;23.30;65.10;;;;;;5052352;28;20209;-59
2023/05/30 09:10:31;;;;;;;9.07;3.03;;;23.20;65.90;;;;;;5052519;28;20245;-59
2023/05/30 09:12:59;;;;;;;5.25;3.05;;;23.10;66.70;;;;;;5052298;28;20255;-58
2023/05/30 09:15:25;;;;;;;6.13;2.92;;;22.90;66.50;;;;;;5052712;28;20193;-59
2023/05/30 09:17:52;;;;;;;5.68;2.83;;;22.80;67.40;;;;;;5052176;28;20217;-59
2023/05/30 09:20:19;;;;;;;5.80;2.95;;;22.80;67.30;;;;;;5052131;28;20237;-59
2023/05/30 09:22:46;;;;;;;6.13;3.15;;;22.70;67.30;;;;;;5052659;28;20209;-58
2023/05/30 09:25:15;;;;;;;5.40;3.10;;;22.80;67.90;;;;;;5051971;28;20319;-57
2023/05/30 09:27:46;;;;;;;6.78;3.28;;;22.70;68.20;;;;;;5052501;28;20355;-60
2023/05/30 09:30:14;;;;;;;6.93;3.97;;;22.70;68.60;;;;;;5051998;28;20725;-61
2023/05/30 09:32:40;;;;;;;6.47;3.10;;;22.60;68.80;;;;;;5052159;28;20241;-61
2023/05/30 09:35:10;;;;;;;7.78;3.05;;;22.70;69.00;;;;;;5052030;28;20201;-60
2023/05/30 09:37:38;;;;;;;3.70;2.67;;;22.80;68.80;;;;;;5051601;28;20264;-63
2023/05/30 09:40:08;;;;;;;7.25;3.20;;;22.90;68.60;;;;;;5051476;28;20271;-62
2023/05/30 09:42:41;;;;;;;5.65;2.92;;;22.90;68.60;;;;;;5052137;28;20237;-61
2023/05/30 09:45:09;;;;;;;6.45;2.90;;;22.80;68.70;;;;;;5051417;28;20218;-60
2023/05/30 09:47:40;;;;;;;6.00;3.40;;;23.00;69.30;;;;;;5051810;28;20213;-62
2023/05/30 09:50:08;;;;;;;7.95;2.97;;;22.90;70.20;;;;;;5051360;28;20248;-60
2023/05/30 09:52:35;;;;;;;4.88;2.78;;;22.90;70.10;;;;;;5051962;28;20242;-59
2023/05/30 09:55:05;;;;;;;5.38;2.95;;;23.10;70.00;;;;;;5051452;28;20198;-60
2023/05/30 09:57:35;;;;;;;7.03;3.10;;;23.00;69.60;;;;;;5051384;28;20637;-60
2023/05/30 10:00:06;;;;;;;5.47;3.00;;;23.00;69.70;;;;;;5052959;28;20237;-62
2023/05/30 10:02:33;;;;;;;5.28;2.88;;;23.10;70.40;;;;;;5052313;28;20214;-62
2023/05/30 10:05:01;;;;;;;6.53;2.80;;;23.10;70.40;;;;;;5052188;28;20225;-61
2023/05/30 10:07:29;;;;;;;6.40;3.03;;;23.20;69.50;;;;;;5051861;28;20296;-63
2023/05/30 10:09:57;;;;;;;4.13;2.92;;;23.20;69.90;;;;;;5051815;28;20209;-63
2023/05/30 10:12:24;;;;;;;6.35;2.65;;;23.30;70.00;;;;;;5051674;28;20213;-63
2023/05/30 10:14:51;;;;;;;9.95;3.00;;;23.40;71.10;;;;;;5048857;28;20205;-60
2023/05/30 10:17:25;;;;;;;10.98;3.42;;;23.40;68.50;;;;;;5051616;28;20216;-66
2023/05/30 10:19:59;;;;;;;5.97;2.83;;;23.50;68.60;;;;;;5051938;28;20292;-63
2023/05/30 10:22:29;;;;;;;7.20;3.10;;;23.40;68.80;;;;;;5051986;28;20601;-61
2023/05/30 10:25:00;;;;;;;7.00;2.97;;;23.40;69.20;;;;;;5051405;28;20217;-64
2023/05/30 10:27:31;;;;;;;4.57;2.58;;;23.40;69.10;;;;;;5051302;28;20260;-63
2023/05/30 10:30:04;;;;;;;5.80;2.92;;;23.50;69.70;;;;;;5051556;28;20210;-61
2023/05/30 10:32:35;;;;;;;4.95;2.70;;;23.60;68.60;;;;;;5049802;28;20205;-60
2023/05/30 10:35:08;;;;;;;5.10;2.97;;;23.70;68.90;;;;;;5051347;28;20692;-60
2023/05/30 10:37:36;;;;;;;7.18;2.70;;;23.60;68.90;;;;;;5050817;28;20554;-61
2023/05/30 10:40:19;;;;;;;5.90;3.00;;;23.70;69.70;;;;;;5051227;28;20233;-59
2023/05/30 10:42:56;;;;;;;4.65;2.75;;;23.80;69.20;;;;;;5049671;28;20208;-64
2023/05/30 10:45:32;;;;;;;5.25;2.90;;;23.90;68.60;;;;;;5049967;28;20257;-62
2023/05/30 10:48:09;;;;;;;6.32;2.60;;;24.00;68.00;;;;;;5050754;28;20586;-59
2023/05/30 10:50:42;;;;;;;6.65;3.00;;;24.00;67.80;;;;;;5050657;28;20320;-68
2023/05/30 10:53:16;;;;;;;6.55;2.83;;;23.90;67.50;;;;;;5051927;28;20242;-65
2023/05/30 10:55:43;;;;;;;6.78;3.13;;;23.90;68.30;;;;;;5051730;28;20216;-63
2023/05/30 10:58:35;;;;;;;6.38;3.10;;;24.00;67.60;;;;;;5051651;28;20213;-61
2023/05/30 11:01:24;;;;;;;6.97;3.25;;;24.10;67.40;;;;;;5051787;28;20316;-60
2023/05/30 11:03:58;;;;;;;6.35;2.97;;;24.10;66.50;;;;;;5051720;28;20476;-61
2023/05/30 11:06:26;;;;;;;7.05;2.70;;;24.20;66.00;;;;;;5051467;28;20217;-60
2023/05/30 11:08:54;;;;;;;5.82;3.08;;;24.20;66.60;;;;;;5051728;28;20202;-60
2023/05/30 11:11:21;;;;;;;4.85;3.28;;;24.10;66.50;;;;;;5052222;28;20760;-61
2023/05/30 11:13:50;;;;;;;5.07;2.80;;;24.20;66.30;;;;;;5054545;28;20213;-60
2023/05/30 11:16:23;;;;;;;8.15;2.65;;;24.30;65.80;;;;;;5052267;28;20205;-60
2023/05/30 11:18:52;;;;;;;6.53;2.78;;;24.30;65.90;;;;;;5051724;28;20216;-61
2023/05/30 11:21:56;;;;;;;6.55;2.65;;;24.50;65.70;;;;;;5051386;28;20282;-61
2023/05/30 11:24:24;;;;;;;4.88;2.78;;;24.50;65.90;;;;;;5051445;28;20229;-61
2023/05/30 11:26:58;;;;;;;7.07;3.05;;;24.50;65.30;;;;;;5050964;28;20205;-62
2023/05/30 11:29:36;;;;;;;7.90;2.92;;;24.50;64.40;;;;;;5051493;28;20226;-61
2023/05/30 11:32:06;;;;;;;6.00;3.22;;;24.50;64.10;;;;;;5051988;28;20260;-61
2023/05/30 11:34:32;;;;;;;7.32;3.00;;;24.70;63.90;;;;;;5052007;28;20235;-60
2023/05/30 11:37:01;;;;;;;4.53;2.63;;;24.80;64.10;;;;;;5051407;28;20355;-62
2023/05/30 11:39:27;;;;;;;5.78;2.80;;;24.80;63.40;;;;;;5051174;28;20209;-61
2023/05/30 11:41:55;;;;;;;4.15;2.47;;;24.90;63.80;;;;;;5051347;28;20237;-61
2023/05/30 11:44:21;;;;;;;7.38;2.90;;;24.90;63.30;;;;;;5051781;28;20281;-62
2023/05/30 11:46:59;;;;;;;7.43;2.85;;;24.80;62.90;;;;;;5051069;28;20575;-61
2023/05/30 11:49:26;;;;;;;6.38;2.70;;;24.80;64.20;;;;;;5051597;28;20212;-62
2023/05/30 11:51:53;;;;;;;5.10;2.80;;;24.80;63.70;;;;;;5051019;28;20587;-62
2023/05/30 11:54:22;;;;;;;6.18;3.10;;;24.80;63.20;;;;;;5051359;28;20202;-61
2023/05/30 11:56:50;;;;;;;5.20;2.70;;;24.90;64.00;;;;;;5051434;28;20227;-62
2023/05/30 11:59:18;;;;;;;7.57;3.00;;;24.90;63.70;;;;;;5051672;28;20206;-61
2023/05/30 12:01:54;;;;;;;6.38;3.05;;;24.80;63.40;;;;;;5051898;28;20715;-61
2023/05/30 12:04:26;;;;;;;6.50;2.50;;;24.90;64.00;;;;;;5056244;28;20293;-62
2023/05/30 12:06:53;;;;;;;4.68;2.50;;;25.00;62.50;;;;;;5055032;28;20205;-64
2023/05/30 12:09:21;;;;;;;9.20;2.88;;;25.10;62.60;;;;;;5055492;28;20619;-61
2023/05/30 12:11:56;;;;;;;6.22;2.92;;;25.20;61.90;;;;;;5055296;28;20324;-62
2023/05/30 12:14:37;;;;;;;7.35;2.67;;;25.00;62.10;;;;;;5055141;28;20262;-63
2023/05/30 12:17:09;;;;;;;5.00;2.83;;;25.00;62.70;;;;;;5055087;28;20224;-62
2023/05/30 12:19:36;;;;;;;9.57;2.72;;;25.10;62.70;;;;;;5055172;28;20202;-61
2023/05/30 12:22:04;;;;;;;5.10;2.70;;;25.20;62.50;;;;;;5055554;28;20222;-63
2023/05/30 12:24:35;;;;;;;3.38;2.53;;;25.20;61.70;;;;;;5055307;28;20210;-64
2023/05/30 12:27:02;;;;;;;6.50;2.85;;;25.20;61.60;;;;;;5054726;28;20250;-61
2023/05/30 12:29:32;;;;;;;4.53;2.75;;;25.30;61.50;;;;;;5055137;28;20749;-61
2023/05/30 12:31:59;;;;;;;5.75;2.75;;;25.40;61.70;;;;;;5054685;28;20229;-61
2023/05/30 12:34:35;;;;;;;6.53;2.60;;;25.40;62.20;;;;;;5055284;28;20209;-61
2023/05/30 12:37:02;;;;;;;5.90;2.58;;;25.40;60.90;;;;;;5054755;28;20212;-63
2023/05/30 12:39:29;;;;;;;7.10;2.95;;;25.40;61.40;;;;;;5054768;28;20255;-62
2023/05/30 12:41:57;;;;;;;7.43;3.20;;;25.40;61.30;;;;;;5054811;28;20291;-61
2023/05/30 12:44:23;;;;;;;5.40;2.55;;;25.40;60.90;;;;;;5054200;28;20267;-60
2023/05/30 12:46:50;;;;;;;4.82;2.70;;;25.60;61.10;;;;;;5053720;28;20209;-61
2023/05/30 12:49:17;;;;;;;4.97;2.72;;;25.60;61.10;;;;;;5054305;28;20205;-62
2023/05/30 12:51:44;;;;;;;4.97;2.65;;;25.70;60.10;;;;;;5054122;28;20236;-61
2023/05/30 12:54:12;;;;;;;5.40;2.72;;;25.70;59.60;;;;;;5053854;28;20291;-64